Latest Weather Observations for Red Rocks Point

IDW60801

Issued at 10:34 am WST Wednesday 26 July 2017 (issued every 30 minutes, with the page automatically refreshed every 10 minutes)

About weather observations | Map of weather stations | Latest weather observations for WA | Other Formats
Station Details ID: 011053 Name: RED ROCKS POINT Lat: -32.20 Lon: 127.53 Height: 3.1 m
Data from the previous 72 hours. | See also: Recent months at Red Rocks Point
Date/Time
WST
Temp
°C
App
Temp
°C
Dew
Point
°C
Rel
Hum
%
Delta-T
°C
Wind Press
QNH
hPa
Press
MSL
hPa
Rain since
9am
mm
Dir  Spd
km/h
Gust
km/h
Spd
kts
Gust
kts
26/10:30am 21.7 16.8 5.2 34 8.1 N 20 32 11 17 1020.6 1020.6 0.0
26/10:00am 20.1 15.2 5.0 37 7.3 N 20 32 11 17 1021.2 1021.2 0.0
26/09:30am 18.2 12.8 4.7 41 6.5 N 22 32 12 17 1021.8 1021.8 0.0
26/09:00am 16.1 11.4 6.0 51 4.9 N 20 30 11 16 1021.8 1021.8 0.2
26/08:30am 12.6 8.0 6.6 67 2.9 N 20 28 11 15 1021.9 1021.9 0.2
26/08:00am 10.5 5.9 6.3 75 1.9 N 20 30 11 16 1022.2 1022.2 0.2
26/07:30am 8.9 3.7 5.6 80 1.5 N 22 30 12 16 1022.3 1022.3 0.2
26/07:00am 7.8 3.0 5.8 87 0.9 N 20 28 11 15 1022.3 1022.3 0.2
26/06:30am 6.3 1.5 4.9 91 0.6 N 19 24 10 13 1022.5 1022.5 0.2
26/06:00am 7.0 2.4 5.8 92 0.5 N 19 26 10 14 1022.1 1022.1 0.2
26/05:30am 7.4 2.9 6.3 93 0.5 N 19 24 10 13 1022.0 1022.0 0.2
26/05:00am 7.4 3.0 6.5 94 0.4 N 19 22 10 12 1021.9 1021.9 0.2
26/04:30am 7.5 3.1 6.6 94 0.4 N 19 24 10 13 1021.7 1021.7 0.2
26/04:00am 7.8 3.3 6.9 94 0.4 N 20 28 11 15 1021.5 1021.5 0.2
26/03:30am 8.1 3.3 7.2 94 0.4 N 22 30 12 16 1021.1 1021.1 0.2
26/03:00am 7.9 3.6 7.0 94 0.4 N 19 28 10 15 1021.2 1021.2 0.2
26/02:30am 8.6 3.9 7.7 94 0.4 N 22 28 12 15 1021.7 1021.7 0.2
26/02:00am 8.5 4.1 7.6 94 0.4 N 20 28 11 15 1021.9 1021.9 0.2
26/01:30am 8.1 3.8 7.2 94 0.4 N 19 24 10 13 1022.1 1022.1 0.2
26/01:00am 8.1 3.7 7.2 94 0.4 N 20 26 11 14 1022.8 1022.8 0.2
26/12:30am 9.7 5.8 8.8 94 0.4 N 19 24 10 13 1022.8 1022.8 0.2
26/12:00am 10.3 7.0 9.4 94 0.4 NNE 17 20 9 11 1022.5 1022.5 0.2
 
Date/Time
WST
Temp
°C
App
Temp
°C
Dew
Point
°C
Rel
Hum
%
Delta-T
°C
Wind Press
QNH
hPa
Press
MSL
hPa
Rain since
9am
mm
Dir  Spd
km/h
Gust
km/h
Spd
kts
Gust
kts
25/11:30pm 10.1 7.1 9.2 94 0.4 NNE 15 19 8 10 1022.6 1022.6 0.2
25/11:00pm 9.5 6.7 8.6 94 0.4 N 13 17 7 9 1023.2 1023.2 0.0
25/10:30pm 9.3 6.4 8.2 93 0.5 N 13 17 7 9 1023.5 1023.5 0.0
25/10:00pm 9.3 6.4 8.2 93 0.5 N 13 15 7 8 1023.6 1023.6 0.0
25/09:30pm 9.6 7.1 8.4 92 0.6 N 11 13 6 7 1023.7 1023.7 0.0
25/09:00pm 9.9 7.9 8.7 92 0.6 N 9 13 5 7 1023.6 1023.6 0.0
25/08:30pm 10.0 7.6 8.6 91 0.7 N 11 13 6 7 1023.3 1023.3 0.0
25/08:00pm 10.0 7.9 8.4 90 0.8 N 9 11 5 6 1023.2 1023.2 0.0
25/07:30pm 9.3 7.4 7.6 89 0.8 NNE 7 9 4 5 1023.1 1023.1 0.0
25/07:00pm 8.5 7.7 6.5 87 0.9 CALM 0 0 0 0 1023.1 1023.1 0.0
25/06:30pm 9.1 8.3 6.7 85 1.1 CALM 0 0 0 0 1022.9 1022.9 0.0
25/06:00pm 10.6 10.1 7.8 83 1.3 CALM 0 0 0 0 1022.2 1022.2 0.0
25/05:30pm 11.0 10.4 7.5 79 1.7 CALM 0 0 0 0 1021.8 1021.8 0.0
25/05:00pm 13.6 13.0 9.1 74 2.3 SSW 2 7 1 4 1021.5 1021.5 0.0
25/04:30pm 15.0 12.6 10.0 72 2.6 SSW 13 17 7 9 1021.3 1021.3 0.0
25/04:00pm 16.0 13.3 10.3 69 3.0 SSW 15 20 8 11 1021.4 1021.4 0.0
25/03:30pm 16.8 13.7 10.4 66 3.4 SSW 17 20 9 11 1021.2 1021.2 0.0
25/03:00pm 17.4 14.5 11.0 66 3.4 SSW 17 22 9 12 1021.1 1021.1 0.0
25/02:30pm 17.5 14.1 10.6 64 3.7 SSW 19 26 10 14 1021.0 1021.0 0.0
25/02:00pm 18.1 14.6 10.2 60 4.2 SSW 19 26 10 14 1021.1 1021.1 0.0
25/01:30pm 18.9 16.3 10.7 59 4.4 SSW 15 22 8 12 1021.0 1021.0 0.0
25/01:00pm 18.9 15.6 9.7 55 4.9 SSW 17 24 9 13 1020.9 1020.9 0.0
25/12:30pm 18.9 15.9 10.7 59 4.4 S 17 20 9 11 1020.8 1020.8 0.0
25/12:00pm 18.5 14.6 8.7 53 5.1 SSW 19 24 10 13 1021.1 1021.1 0.0
25/11:30am 18.9 15.6 8.0 49 5.6 SSW 15 22 8 12 1021.6 1021.6 0.0
25/11:00am 19.5 15.4 6.3 42 6.6 SSW 17 20 9 11 1022.0 1022.0 0.0
25/10:30am 20.3 17.8 6.6 41 6.9 WNW 9 15 5 8 1022.3 1022.3 0.0
25/10:00am 18.7 16.2 8.1 50 5.4 NW 11 20 6 11 1022.4 1022.4 0.0
25/09:30am 16.9 14.1 10.1 64 3.6 NNW 15 20 8 11 1022.4 1022.4 0.0
25/09:00am 14.8 13.5 13.7 93 0.6 NNW 13 17 7 9 1022.6 1022.6 0.0
25/08:30am 12.5 10.6 11.9 96 0.3 NNW 13 17 7 9 1022.6 1022.6 0.0
25/08:00am 10.1 7.2 9.5 96 0.3 NNW 15 19 8 10 1022.2 1022.2 0.0
25/07:30am 8.8 5.9 8.2 96 0.3 NW 13 19 7 10 1022.0 1022.0 0.0
25/07:00am 7.3 3.3 6.7 96 0.3 NW 17 20 9 11 1021.7 1021.7 0.0
25/06:30am 6.2 2.0 5.6 96 0.3 NW 17 20 9 11 1021.5 1021.5 0.0
25/06:00am 6.9 2.8 6.3 96 0.3 NW 17 20 9 11 1021.1 1021.1 0.0
25/05:30am 7.1 3.1 6.5 96 0.3 NW 17 20 9 11 1020.9 1020.9 0.0
25/05:00am 6.3 1.7 5.7 96 0.3 NW 19 20 10 11 1020.5 1020.5 0.0
25/04:30am 5.6 0.9 5.0 96 0.3 NW 19 20 10 11 1020.1 1020.1 0.0
25/04:00am 6.0 1.4 5.4 96 0.3 NW 19 20 10 11 1019.9 1019.9 0.0
25/03:30am 5.3 0.9 4.7 96 0.3 NNW 17 20 9 11 1019.7 1019.7 0.0
25/03:00am 5.8 1.5 5.1 95 0.3 NW 17 20 9 11 1019.6 1019.6 0.0
25/02:30am 7.4 3.1 6.8 96 0.3 NW 19 19 10 10 1019.5 1019.5 0.0
25/02:00am 7.6 3.3 6.9 95 0.3 WNW 19 20 10 11 1019.5 1019.5 0.0
25/01:30am 7.3 2.9 6.6 95 0.3 NW 19 20 10 11 1019.4 1019.4 0.0
25/01:00am 7.2 3.2 6.5 95 0.3 NW 17 19 9 10 1019.5 1019.5 0.0
25/12:30am 7.4 3.4 6.7 95 0.3 NW 17 19 9 10 1019.4 1019.4 0.0
25/12:00am 7.5 3.5 6.8 95 0.3 NNW 17 17 9 9 1019.3 1019.3 0.0
 
Date/Time
WST
Temp
°C
App
Temp
°C
Dew
Point
°C
Rel
Hum
%
Delta-T
°C
Wind Press
QNH
hPa
Press
MSL
hPa
Rain since
9am
mm
Dir  Spd
km/h
Gust
km/h
Spd
kts
Gust
kts
24/11:30pm 7.9 4.4 7.1 95 0.4 NNW 15 17 8 9 1019.1 1019.1 0.0
24/11:00pm 7.9 4.4 7.0 94 0.4 NNW 15 17 8 9 1019.2 1019.2 0.0
24/10:30pm 7.9 4.4 7.0 94 0.4 NNW 15 15 8 8 1019.1 1019.1 0.0
24/10:00pm 8.1 4.6 7.0 93 0.5 NNW 15 15 8 8 1019.0 1019.0 0.0
24/09:30pm 8.7 6.4 7.6 93 0.5 NNW 9 11 5 6 1018.9 1018.9 0.0
24/09:00pm 9.5 7.0 8.3 92 0.6 NNW 11 13 6 7 1019.0 1019.0 0.0
24/08:30pm 9.3 7.7 7.9 91 0.7 N 6 7 3 4 1018.8 1018.8 0.0
24/08:00pm 9.7 7.6 8.3 91 0.7 N 9 11 5 6 1018.7 1018.7 0.0
24/07:30pm 8.9 7.5 7.2 89 0.8 SW 4 11 2 6 1018.7 1018.7 0.0
24/07:00pm 8.9 8.2 6.9 87 0.9 CALM 0 0 0 0 1018.3 1018.3 0.0
24/06:30pm 10.2 9.7 8.0 86 1.1 CALM 0 0 0 0 1018.1 1018.1 0.0
24/06:00pm 11.6 9.7 9.2 85 1.2 SSW 9 11 5 6 1017.8 1017.8 0.0
24/05:30pm 12.2 10.3 9.0 81 1.6 SW 9 11 5 6 1017.5 1017.5 0.0
24/05:00pm 13.8 12.0 9.3 74 2.3 SW 9 11 5 6 1017.2 1017.2 0.0
24/04:30pm 15.4 14.1 10.0 70 2.8 SW 7 9 4 5 1017.0 1017.0 0.0
24/04:00pm 16.3 14.0 10.6 69 3.0 SW 13 17 7 9 1016.8 1016.8 0.0
24/03:30pm 17.0 14.5 11.1 68 3.2 SW 15 19 8 10 1016.7 1016.7 0.0
24/03:00pm 17.4 14.4 10.5 64 3.7 SW 17 26 9 14 1016.6 1016.6 0.0
24/02:30pm 17.5 14.2 10.9 65 3.5 SW 19 24 10 13 1016.6 1016.6 0.0
24/02:00pm 18.1 15.3 11.4 65 3.6 SW 17 24 9 13 1016.6 1016.6 0.0
24/01:30pm 18.1 14.8 11.7 66 3.5 SW 20 30 11 16 1016.6 1016.6 0.0
24/01:00pm 18.1 14.7 11.4 65 3.6 SW 20 33 11 18 1016.8 1016.8 0.0
24/12:30pm 18.0 14.6 11.3 65 3.6 SW 20 33 11 18 1017.0 1017.0 0.0
24/12:00pm 18.8 15.2 10.4 58 4.5 SW 20 30 11 16 1017.2 1017.2 0.0
24/11:30am 18.9 15.1 9.9 56 4.8 SW 20 30 11 16 1017.7 1017.7 0.0
24/11:00am 19.0 15.3 9.5 54 5.0 SW 19 26 10 14 1017.9 1017.9 0.0
24/10:30am 20.0 16.6 7.7 45 6.3 SW 15 22 8 12 1018.2 1018.2 0.0
24/10:00am 20.1 16.9 6.8 42 6.7 WNW 13 19 7 10 1018.4 1018.4 0.0
24/09:30am 18.4 15.1 6.3 45 6.0 NW 13 17 7 9 1018.5 1018.5 0.0
24/09:00am 16.8 13.4 5.7 48 5.3 NW 13 20 7 11 1018.6 1018.6 0.0
24/08:30am 14.0 9.9 4.3 52 4.5 NW 15 22 8 12 1018.5 1018.5 0.0
24/08:00am 12.0 7.4 3.8 57 3.7 NW 17 20 9 11 1018.5 1018.5 0.0
24/07:30am 10.0 5.3 3.3 63 2.9 NW 17 22 9 12 1018.1 1018.1 0.0
24/07:00am 8.9 4.5 2.9 66 2.5 NW 15 20 8 11 1017.8 1017.8 0.0
24/06:30am 8.1 3.3 2.8 69 2.2 NW 17 20 9 11 1017.6 1017.6 0.0
24/06:00am 7.8 3.7 2.5 69 2.2 NW 13 19 7 10 1017.5 1017.5 0.0
24/05:30am 7.4 2.2 2.5 71 2.0 NNW 19 41 10 22 1017.5 1017.5 0.0
24/05:00am 7.5 2.7 2.6 71 2.0 N 17 22 9 12 1016.4 1016.4 0.0
24/04:30am 7.8 2.6 2.7 70 2.1 N 19 22 10 12 1016.2 1016.2 0.0
24/04:00am 7.6 2.5 3.3 74 1.8 N 19 24 10 13 1016.2 1016.2 0.0
24/03:30am 7.8 2.8 3.5 74 1.8 N 19 24 10 13 1016.2 1016.2 0.0
24/03:00am 7.8 3.2 3.7 75 1.8 N 17 24 9 13 1016.2 1016.2 0.0
24/02:30am 8.4 3.5 4.2 75 1.8 N 19 24 10 13 1016.2 1016.2 0.0
24/02:00am 8.6 4.2 4.6 76 1.8 N 17 20 9 11 1016.4 1016.4 0.0
24/01:30am 9.2 4.9 5.4 77 1.7 N 17 24 9 13 1016.6 1016.6 0.0
24/01:00am 9.5 5.4 6.2 80 1.5 N 17 24 9 13 1016.7 1016.7 0.0
24/12:30am 9.7 5.8 7.0 83 1.3 N 17 20 9 11 1017.1 1017.1 0.0
24/12:00am 9.8 7.3 8.1 89 0.8 NNE 11 17 6 9 1017.1 1017.1 0.0
 
Date/Time
WST
Temp
°C
App
Temp
°C
Dew
Point
°C
Rel
Hum
%
Delta-T
°C
Wind Press
QNH
hPa
Press
MSL
hPa
Rain since
9am
mm
Dir  Spd
km/h
Gust
km/h
Spd
kts
Gust
kts
23/11:30pm 10.4 8.4 8.5 88 0.9 NE 9 11 5 6 1017.5 1017.5 0.0
23/11:00pm 11.5 8.1 9.2 86 1.1 NNE 17 19 9 10 1017.8 1017.8 0.0
23/10:30pm 11.7 8.4 9.6 87 1.1 NE 17 20 9 11 1018.1 1018.1 0.0
23/10:00pm 11.3 8.4 9.6 89 0.9 NE 15 17 8 9 1018.4 1018.4 0.0
23/09:30pm 11.6 9.2 9.9 89 0.9 NE 13 15 7 8 1018.6 1018.6 0.0
23/09:00pm 12.0 10.4 10.2 89 0.9 NE 9 9 5 5 1018.8 1018.8 0.0
23/08:30pm 12.4 10.1 10.5 88 1.0 NE 13 15 7 8 1018.7 1018.7 0.0
23/08:00pm 12.7 10.4 10.4 86 1.2 NE 13 13 7 7 1018.9 1018.9 0.0
23/07:30pm 13.7 11.9 11.0 84 1.4 NE 11 13 6 7 1018.8 1018.8 0.0
23/07:00pm 14.9 11.7 12.0 83 1.6 ENE 20 22 11 12 1018.5 1018.5 0.0
23/06:30pm 14.9 11.3 11.9 82 1.6 ENE 22 24 12 13 1018.0 1018.0 0.0
23/06:00pm 14.8 11.5 11.6 81 1.7 E 20 22 11 12 1017.9 1017.9 0.0
23/05:30pm 14.9 12.0 11.1 78 2.0 E 17 19 9 10 1017.8 1017.8 0.0
23/05:00pm 15.0 12.4 10.6 75 2.3 ESE 15 17 8 9 1017.6 1017.6 0.0
23/04:30pm 15.2 12.0 10.0 71 2.7 E 17 19 9 10 1017.4 1017.4 0.0
23/04:00pm 15.8 12.6 9.9 68 3.1 E 17 17 9 9 1017.4 1017.4 0.0
23/03:30pm 16.4 13.5 9.8 65 3.5 E 15 17 8 9 1017.3 1017.3 0.0
23/03:00pm 16.8 14.4 10.0 64 3.6 ESE 13 15 7 8 1017.5 1017.5 0.0
23/02:30pm 17.2 14.9 10.3 64 3.7 SE 13 15 7 8 1017.5 1017.5 0.0
23/02:00pm 17.5 15.6 10.6 64 3.7 SSE 11 15 6 8 1017.9 1017.9 0.0
23/01:30pm 17.8 14.6 8.6 55 4.7 SSE 15 17 8 9 1018.1 1018.1 0.0
23/01:00pm 18.2 15.2 9.3 56 4.7 S 15 17 8 9 1018.6 1018.6 0.0
23/12:30pm 17.8 15.2 10.7 63 3.8 S 15 17 8 9 1019.0 1019.0 0.0
23/12:00pm 17.4 14.2 10.1 62 3.9 SSE 17 19 9 10 1019.5 1019.5 0.0
23/11:30am 18.2 16.0 10.8 62 4.0 SSE 13 15 7 8 1020.0 1020.0 0.0
23/11:00am 19.9 17.4 4.8 37 7.3 N 7 13 4 7 1020.5 1020.5 0.0

Other Formats:

Comma delimited format used in spreadsheet applications
http://www.bom.gov.au/fwo/IDW60801/IDW60801.94644.axf

JavaScript Object Notation format (JSON) in row-major order
http://www.bom.gov.au/fwo/IDW60801/IDW60801.94644.json